createdAt,value
2018-08-13T00:01:02.144Z,99.90
2018-08-13T00:03:30.448Z,99.90
2018-08-13T00:05:58.768Z,99.90
2018-08-13T00:08:27.064Z,99.90
2018-08-13T00:10:55.372Z,99.90
2018-08-13T00:13:23.691Z,99.90
2018-08-13T00:15:52.004Z,99.90
2018-08-13T00:18:20.301Z,99.60
2018-08-13T00:20:48.745Z,99.90
2018-08-13T00:23:17.136Z,99.90
2018-08-13T00:25:45.448Z,99.90
2018-08-13T00:28:13.743Z,99.90
2018-08-13T00:30:42.059Z,99.90
2018-08-13T00:33:11.509Z,99.90
2018-08-13T00:35:39.999Z,99.90
2018-08-13T00:38:08.664Z,99.90
2018-08-13T00:40:37.051Z,99.90
2018-08-13T00:43:05.701Z,99.90
2018-08-13T00:45:34.028Z,99.90
2018-08-13T00:48:02.329Z,99.90
2018-08-13T00:50:30.672Z,99.90
2018-08-13T00:52:58.979Z,99.70
2018-08-13T00:55:27.312Z,99.90
2018-08-13T00:57:55.607Z,99.90
2018-08-13T01:00:23.959Z,99.90
2018-08-13T01:02:52.456Z,99.90
2018-08-13T01:05:21.204Z,99.90
2018-08-13T01:07:49.515Z,99.90
2018-08-13T01:10:18.907Z,99.90
2018-08-13T01:12:47.216Z,99.90
2018-08-13T01:15:17.021Z,99.90
2018-08-13T01:17:46.624Z,99.90
2018-08-13T01:20:16.928Z,99.90
2018-08-13T01:22:45.244Z,99.90
2018-08-13T01:25:15.295Z,99.90
2018-08-13T01:27:44.171Z,99.90
2018-08-13T01:30:14.951Z,99.90
2018-08-13T01:32:43.270Z,99.90
2018-08-13T01:35:11.588Z,99.90
2018-08-13T01:37:39.905Z,99.90
2018-08-13T01:40:09.400Z,99.90
2018-08-13T01:42:37.740Z,99.90
2018-08-13T01:45:08.375Z,99.90
2018-08-13T01:47:36.781Z,99.90
2018-08-13T01:50:07.060Z,99.90
2018-08-13T01:52:35.385Z,99.90
2018-08-13T01:55:04.072Z,99.90
2018-08-13T01:57:32.403Z,99.90
2018-08-13T02:00:00.705Z,99.90
2018-08-13T02:02:29.028Z,99.90
2018-08-13T02:04:57.330Z,99.90
2018-08-13T02:07:25.643Z,99.90
2018-08-13T02:09:53.952Z,99.90
2018-08-13T02:12:22.267Z,99.90
2018-08-13T02:14:50.573Z,99.90
2018-08-13T02:17:18.901Z,99.90
2018-08-13T02:19:47.204Z,99.90
2018-08-13T02:22:15.539Z,99.90
2018-08-13T02:24:43.845Z,99.90
2018-08-13T02:27:12.179Z,99.90
2018-08-13T02:29:40.475Z,99.90
2018-08-13T02:32:08.805Z,99.90
2018-08-13T02:34:37.112Z,99.90
2018-08-13T02:37:05.592Z,99.90
2018-08-13T02:39:33.884Z,99.90
2018-08-13T02:42:02.324Z,99.90
2018-08-13T02:44:30.636Z,99.90
2018-08-13T02:46:58.964Z,99.90
2018-08-13T02:49:27.252Z,99.90
2018-08-13T02:51:55.571Z,99.90
2018-08-13T02:54:23.885Z,99.90
2018-08-13T02:56:52.212Z,99.90
2018-08-13T02:59:20.531Z,99.90
2018-08-13T03:01:48.862Z,99.90
2018-08-13T03:04:17.179Z,99.90
2018-08-13T03:06:45.532Z,99.90
2018-08-13T03:09:13.820Z,99.90
2018-08-13T03:11:42.132Z,99.90
2018-08-13T03:14:10.440Z,99.90
2018-08-13T03:16:38.777Z,99.90
2018-08-13T03:19:07.084Z,99.90
2018-08-13T03:21:35.405Z,99.90
2018-08-13T03:24:03.736Z,99.90
2018-08-13T03:26:32.060Z,99.90
2018-08-13T03:29:00.361Z,99.90
2018-08-13T03:31:28.695Z,99.90
2018-08-13T03:33:57.092Z,99.90
2018-08-13T03:36:25.397Z,99.90
2018-08-13T03:38:53.719Z,99.90
2018-08-13T03:41:22.044Z,99.90
2018-08-13T03:43:50.392Z,99.90
2018-08-13T03:46:18.740Z,99.90
2018-08-13T03:48:47.120Z,99.90
2018-08-13T03:51:15.431Z,99.90
2018-08-13T03:53:43.805Z,99.90
2018-08-13T03:56:12.092Z,99.90
2018-08-13T03:58:40.406Z,99.90
2018-08-13T04:01:08.704Z,99.90
2018-08-13T04:03:37.040Z,99.90
2018-08-13T04:06:05.452Z,99.90
2018-08-13T04:08:33.779Z,99.90
2018-08-13T04:11:02.071Z,99.90
2018-08-13T04:13:30.413Z,99.90
2018-08-13T04:15:58.723Z,99.90
2018-08-13T04:18:27.068Z,99.90
2018-08-13T04:20:55.378Z,99.90
2018-08-13T04:23:23.695Z,99.90
2018-08-13T04:25:51.999Z,99.90
2018-08-13T04:28:20.312Z,99.90
2018-08-13T04:30:48.612Z,99.90
2018-08-13T04:33:16.932Z,99.90
2018-08-13T04:35:45.237Z,99.90
2018-08-13T04:38:13.570Z,99.90
2018-08-13T04:40:41.872Z,99.90
2018-08-13T04:43:10.192Z,99.90
2018-08-13T04:45:38.485Z,99.90
2018-08-13T04:48:06.872Z,99.90
2018-08-13T04:50:35.183Z,99.90
2018-08-13T04:53:03.503Z,99.90
2018-08-13T04:55:31.856Z,99.90
2018-08-13T04:58:00.182Z,99.90
2018-08-13T05:00:28.484Z,99.90
2018-08-13T05:02:56.808Z,99.90
2018-08-13T05:05:25.144Z,99.90
2018-08-13T05:07:53.472Z,99.90
2018-08-13T05:10:21.779Z,99.90
2018-08-13T05:12:50.084Z,99.90
2018-08-13T05:15:18.443Z,99.90
2018-08-13T05:17:46.769Z,99.90
2018-08-13T05:20:15.072Z,99.90
2018-08-13T05:22:43.391Z,99.90
2018-08-13T05:25:11.692Z,99.90
2018-08-13T05:27:40.856Z,99.90
2018-08-13T05:30:10.452Z,99.90
2018-08-13T05:32:38.831Z,99.90
2018-08-13T05:35:07.848Z,99.90
2018-08-13T05:37:36.470Z,99.90
2018-08-13T05:40:05.545Z,99.90
2018-08-13T05:42:33.879Z,99.90
2018-08-13T05:45:02.184Z,99.90
2018-08-13T05:47:30.510Z,99.90
2018-08-13T05:49:58.811Z,99.90
2018-08-13T05:52:27.193Z,99.90
2018-08-13T05:54:55.492Z,99.90
2018-08-13T05:57:23.856Z,99.90
2018-08-13T05:59:52.188Z,99.90
2018-08-13T06:02:20.504Z,99.90
2018-08-13T06:04:48.804Z,99.90
2018-08-13T06:07:17.127Z,99.90
2018-08-13T06:09:45.428Z,99.90
2018-08-13T06:12:13.725Z,99.90
2018-08-13T06:14:42.049Z,99.90
2018-08-13T06:17:10.361Z,99.90
2018-08-13T06:19:38.700Z,99.90
2018-08-13T06:22:07.013Z,99.90
2018-08-13T06:24:36.023Z,99.90
2018-08-13T06:27:04.352Z,99.90
2018-08-13T06:29:32.681Z,99.90
2018-08-13T06:32:00.983Z,99.90
2018-08-13T06:34:29.292Z,99.90
2018-08-13T06:36:57.584Z,99.90
2018-08-13T06:39:25.896Z,99.80
2018-08-13T06:41:54.199Z,99.90
2018-08-13T06:44:22.604Z,99.50
2018-08-13T06:46:50.936Z,99.10
2018-08-13T06:49:19.248Z,98.90
2018-08-13T06:51:47.564Z,98.70
2018-08-13T06:54:15.888Z,99.90
2018-08-13T06:56:44.195Z,99.30
2018-08-13T06:59:12.508Z,98.90
2018-08-13T07:01:40.796Z,99.20
2018-08-13T07:04:09.140Z,99.20
2018-08-13T07:06:37.428Z,98.40
2018-08-13T07:09:07.951Z,98.00
2018-08-13T07:11:36.264Z,98.30
2018-08-13T07:14:04.832Z,97.40
2018-08-13T07:16:33.132Z,97.50
2018-08-13T07:19:01.484Z,97.20
2018-08-13T07:21:29.776Z,96.80
2018-08-13T07:23:58.113Z,96.80
2018-08-13T07:26:26.404Z,96.40
2018-08-13T07:28:54.719Z,96.00
2018-08-13T07:31:23.013Z,96.10
2018-08-13T07:33:51.361Z,95.80
2018-08-13T07:36:19.656Z,95.60
2018-08-13T07:38:47.968Z,94.80
2018-08-13T07:41:16.370Z,94.30
2018-08-13T07:43:44.703Z,94.40
2018-08-13T07:46:13.043Z,93.90
2018-08-13T07:48:41.363Z,94.30
2018-08-13T07:51:09.660Z,94.10
2018-08-13T07:53:37.971Z,92.80
2018-08-13T07:56:06.285Z,93.40
2018-08-13T07:58:34.614Z,92.40
2018-08-13T08:01:02.916Z,95.40
2018-08-13T08:03:31.267Z,93.40
2018-08-13T08:05:59.629Z,92.00
2018-08-13T08:08:27.941Z,90.70
2018-08-13T08:10:56.421Z,90.40
2018-08-13T08:13:24.732Z,91.30
2018-08-13T08:15:53.031Z,90.40
2018-08-13T08:18:21.343Z,90.60
2018-08-13T08:20:49.651Z,90.20
2018-08-13T08:23:17.956Z,88.40
2018-08-13T08:25:46.411Z,93.40
2018-08-13T08:28:14.740Z,89.30
2018-08-13T08:30:43.087Z,87.50
2018-08-13T08:33:11.412Z,87.50
2018-08-13T08:35:39.735Z,87.00
2018-08-13T08:38:08.044Z,85.10
2018-08-13T08:40:36.397Z,85.60
2018-08-13T08:43:04.988Z,84.00
2018-08-13T08:45:33.310Z,86.10
2018-08-13T08:48:01.616Z,85.00
2018-08-13T08:50:29.923Z,84.90
2018-08-13T08:52:58.221Z,83.80
2018-08-13T08:55:26.549Z,91.60
2018-08-13T08:57:54.866Z,85.40
2018-08-13T09:00:24.104Z,83.40
2018-08-13T09:02:52.527Z,85.00
2018-08-13T09:05:20.852Z,81.80
2018-08-13T09:07:49.159Z,83.10
2018-08-13T09:10:17.491Z,90.40
2018-08-13T09:12:45.804Z,83.20
2018-08-13T09:15:15.691Z,84.00
2018-08-13T09:17:56.155Z,86.00
2018-08-13T09:20:35.927Z,83.00
2018-08-13T09:23:15.531Z,83.20
2018-08-13T09:25:55.144Z,90.70
2018-08-13T09:28:34.708Z,87.50
2018-08-13T09:32:17.376Z,86.80
2018-08-13T09:35:12.388Z,85.40
2018-08-13T09:37:40.765Z,88.70
2018-08-13T09:40:09.692Z,84.90
2018-08-13T09:42:37.983Z,86.00
2018-08-13T09:45:07.516Z,86.60
2018-08-13T09:47:35.995Z,88.90
2018-08-13T09:50:06.378Z,85.80
2018-08-13T09:52:34.680Z,88.50
2018-08-13T09:55:03.012Z,90.40
2018-08-13T09:57:31.324Z,85.50
2018-08-13T09:59:59.632Z,89.70
2018-08-13T10:02:27.924Z,82.10
2018-08-13T10:04:56.237Z,78.10
2018-08-13T10:07:24.556Z,81.90
2018-08-13T10:09:52.884Z,77.00
2018-08-13T10:12:21.197Z,80.80
2018-08-13T10:14:50.337Z,81.70
2018-08-13T10:17:19.959Z,88.70
2018-08-13T10:19:48.560Z,81.70
2018-08-13T10:22:16.873Z,82.20
2018-08-13T10:24:45.216Z,78.20
2018-08-13T10:27:13.936Z,77.20
2018-08-13T10:29:42.378Z,77.10
2018-08-13T10:32:10.712Z,77.00
2018-08-13T10:34:39.073Z,74.30
2018-08-13T10:37:07.379Z,75.10
2018-08-13T10:39:35.712Z,75.80
2018-08-13T10:42:04.025Z,76.60
2018-08-13T10:44:32.332Z,74.40
2018-08-13T10:47:00.657Z,74.20
2018-08-13T10:49:29.001Z,73.50
2018-08-13T10:51:57.319Z,72.20
2018-08-13T10:54:25.643Z,72.60
2018-08-13T10:56:54.024Z,74.00
2018-08-13T10:59:22.349Z,73.80
2018-08-13T11:01:50.716Z,74.00
2018-08-13T11:04:19.056Z,74.20
2018-08-13T11:06:47.375Z,74.00
2018-08-13T11:09:15.687Z,75.60
2018-08-13T11:11:44.008Z,75.60
2018-08-13T11:14:12.297Z,76.70
2018-08-13T11:16:40.651Z,79.00
2018-08-13T11:19:08.976Z,78.40
2018-08-13T11:21:37.320Z,75.50
2018-08-13T11:24:06.196Z,77.90
2018-08-13T11:26:34.505Z,71.40
2018-08-13T11:29:02.820Z,71.70
2018-08-13T11:31:31.133Z,77.20
2018-08-13T11:33:59.440Z,77.10
2018-08-13T11:36:27.748Z,72.40
2018-08-13T11:38:56.061Z,72.70
2018-08-13T11:41:24.380Z,74.90
2018-08-13T11:43:52.835Z,73.50
2018-08-13T11:46:21.189Z,72.70
2018-08-13T11:48:49.467Z,73.60
2018-08-13T11:51:17.794Z,72.20
2018-08-13T11:53:46.139Z,73.00
2018-08-13T11:56:14.506Z,72.50
2018-08-13T11:58:42.792Z,72.20
2018-08-13T12:01:11.100Z,72.10
2018-08-13T12:03:39.404Z,70.40
2018-08-13T12:06:07.716Z,71.30
2018-08-13T12:08:36.008Z,72.10
2018-08-13T12:11:04.336Z,70.40
2018-08-13T12:13:32.632Z,71.40
2018-08-13T12:16:00.940Z,71.30
2018-08-13T12:18:29.251Z,75.20
2018-08-13T12:20:57.571Z,70.80
2018-08-13T12:23:25.869Z,71.50
2018-08-13T12:25:54.236Z,70.30
2018-08-13T12:28:22.531Z,71.30
2018-08-13T12:30:50.838Z,70.00
2018-08-13T12:33:19.147Z,71.90
2018-08-13T12:35:47.464Z,68.90
2018-08-13T12:38:15.784Z,69.10
2018-08-13T12:40:44.104Z,69.00
2018-08-13T12:43:12.427Z,70.50
2018-08-13T12:45:40.732Z,70.50
2018-08-13T12:48:09.041Z,70.10
2018-08-13T12:50:37.352Z,71.10
2018-08-13T12:53:05.668Z,70.30
2018-08-13T12:55:33.985Z,70.90
2018-08-13T12:58:02.325Z,72.50
2018-08-13T13:00:30.684Z,72.40
2018-08-13T13:02:59.000Z,72.20
2018-08-13T13:05:27.299Z,72.60
2018-08-13T13:07:55.620Z,72.00
2018-08-13T13:10:23.912Z,71.90
2018-08-13T13:12:52.304Z,72.70
2018-08-13T13:15:21.180Z,71.90
2018-08-13T13:17:49.624Z,72.90
2018-08-13T13:20:21.893Z,72.30
2018-08-13T13:22:50.776Z,72.50
2018-08-13T13:25:19.465Z,73.30
2018-08-13T13:27:47.828Z,74.00
2018-08-13T13:30:16.756Z,73.60
2018-08-13T13:32:45.271Z,74.00
2018-08-13T13:35:15.172Z,72.90
2018-08-13T13:37:43.636Z,74.20
2018-08-13T13:40:13.694Z,76.10
2018-08-13T13:42:42.493Z,75.40
2018-08-13T13:45:11.562Z,75.70
2018-08-13T13:47:40.124Z,75.70
2018-08-13T13:50:11.461Z,76.10
2018-08-13T13:52:40.356Z,76.00
2018-08-13T13:55:08.815Z,76.40
2018-08-13T13:57:37.168Z,76.30
2018-08-13T14:00:09.410Z,76.60
2018-08-13T14:02:37.723Z,76.20
2018-08-13T14:05:06.280Z,77.00
2018-08-13T14:07:34.591Z,78.50
2018-08-13T14:10:03.000Z,78.50
2018-08-13T14:12:31.304Z,79.20
2018-08-13T14:14:59.598Z,80.90
2018-08-13T14:17:27.937Z,80.80
2018-08-13T14:19:56.241Z,81.60
2018-08-13T14:22:24.569Z,82.80
2018-08-13T14:24:52.868Z,83.70
2018-08-13T14:27:21.192Z,83.20
2018-08-13T14:29:49.521Z,83.70
2018-08-13T14:32:17.832Z,84.30
2018-08-13T14:34:46.189Z,85.40
2018-08-13T14:37:14.496Z,85.60
2018-08-13T14:39:42.803Z,86.00
2018-08-13T14:42:11.136Z,86.70
2018-08-13T14:44:39.432Z,87.30
2018-08-13T14:47:07.760Z,87.60
2018-08-13T14:49:36.060Z,88.20
2018-08-13T14:52:04.464Z,88.70
2018-08-13T14:54:32.765Z,88.90
2018-08-13T14:57:01.113Z,89.40
2018-08-13T14:59:29.415Z,90.00
2018-08-13T15:01:57.728Z,90.30
2018-08-13T15:04:26.029Z,90.50
2018-08-13T15:06:54.352Z,90.60
2018-08-13T15:09:22.648Z,90.80
2018-08-13T15:11:50.968Z,91.00
2018-08-13T15:14:19.259Z,91.20
2018-08-13T15:16:47.628Z,91.30
2018-08-13T15:19:16.044Z,91.30
2018-08-13T15:21:44.324Z,91.50
2018-08-13T15:24:12.628Z,91.60
2018-08-13T15:26:42.305Z,91.80
2018-08-13T15:29:10.608Z,91.70
2018-08-13T15:31:38.943Z,92.00
2018-08-13T15:34:08.273Z,91.80
2018-08-13T15:36:36.688Z,92.00
2018-08-13T15:39:08.216Z,92.10
2018-08-13T15:41:36.517Z,92.10
2018-08-13T15:44:05.048Z,92.20
2018-08-13T15:46:33.348Z,92.30
2018-08-13T15:49:02.804Z,92.70
2018-08-13T15:51:31.879Z,92.70
2018-08-13T15:54:00.244Z,92.80
2018-08-13T15:56:28.557Z,93.00
2018-08-13T15:58:56.880Z,93.00
2018-08-13T16:01:25.189Z,93.10
2018-08-13T16:03:53.535Z,93.30
2018-08-13T16:06:21.851Z,93.40
2018-08-13T16:08:50.152Z,93.60
2018-08-13T16:11:18.449Z,93.50
2018-08-13T16:13:46.776Z,93.80
2018-08-13T16:16:15.086Z,93.90
2018-08-13T16:18:43.421Z,93.90
2018-08-13T16:21:12.510Z,94.00
2018-08-13T16:23:40.895Z,94.00
2018-08-13T16:26:09.915Z,94.20
2018-08-13T16:28:38.712Z,94.00
2018-08-13T16:31:07.020Z,94.20
2018-08-13T16:33:35.801Z,94.10
2018-08-13T16:36:04.172Z,94.20
2018-08-13T16:38:32.534Z,94.50
2018-08-13T16:41:05.489Z,94.40
2018-08-13T16:43:34.387Z,94.70
2018-08-13T16:46:05.097Z,94.70
2018-08-13T16:48:34.219Z,94.90
2018-08-13T16:51:03.432Z,94.90
2018-08-13T16:53:32.605Z,95.00
2018-08-13T16:56:01.002Z,95.10
2018-08-13T16:58:29.355Z,94.80
2018-08-13T17:00:57.660Z,95.10
2018-08-13T17:03:25.979Z,94.90
2018-08-13T17:05:54.276Z,95.00
2018-08-13T17:08:22.624Z,95.10
2018-08-13T17:10:51.004Z,95.10
2018-08-13T17:13:19.316Z,95.00
2018-08-13T17:15:47.628Z,95.10
2018-08-13T17:18:15.943Z,95.10
2018-08-13T17:20:44.272Z,95.30
2018-08-13T17:23:12.620Z,95.10
2018-08-13T17:25:41.039Z,95.10
2018-08-13T17:28:09.951Z,95.20
2018-08-13T17:30:38.243Z,95.40
2018-08-13T17:33:07.964Z,95.50
2018-08-13T17:35:36.610Z,95.60
2018-08-13T17:38:08.364Z,95.40
2018-08-13T17:40:39.063Z,95.60
2018-08-13T17:43:08.941Z,95.80
2018-08-13T17:45:37.100Z,96.10
2018-08-13T17:48:06.806Z,95.90
2018-08-13T17:50:35.390Z,96.50
2018-08-13T17:53:03.754Z,97.10
2018-08-13T17:55:32.224Z,98.00
2018-08-13T17:58:01.240Z,99.90
2018-08-13T18:00:29.556Z,99.90
2018-08-13T18:02:57.920Z,99.90
2018-08-13T18:05:27.263Z,99.90
2018-08-13T18:07:56.175Z,99.90
2018-08-13T18:10:26.009Z,99.90
2018-08-13T18:12:54.782Z,99.90
2018-08-13T18:15:23.121Z,99.90
2018-08-13T18:17:51.435Z,99.90
2018-08-13T18:20:19.890Z,99.90
2018-08-13T18:22:48.188Z,99.90
2018-08-13T18:25:16.971Z,99.90
2018-08-13T18:27:46.677Z,99.90
2018-08-13T18:30:16.508Z,99.90
2018-08-13T18:32:45.012Z,99.90
2018-08-13T18:35:13.460Z,99.90
2018-08-13T18:37:41.985Z,99.90
2018-08-13T18:40:41.453Z,99.90
2018-08-13T18:43:09.924Z,99.90
2018-08-13T18:45:38.248Z,99.90
2018-08-13T18:48:06.713Z,99.90
2018-08-13T18:50:35.048Z,99.90
2018-08-13T18:53:03.364Z,99.90
2018-08-13T18:55:31.683Z,99.90
2018-08-13T18:58:00.088Z,99.90
2018-08-13T19:00:29.668Z,99.90
2018-08-13T19:02:59.413Z,99.90
2018-08-13T19:05:27.881Z,99.90
2018-08-13T19:07:56.413Z,99.90
2018-08-13T19:10:24.865Z,99.90
2018-08-13T19:12:53.159Z,99.90
2018-08-13T19:15:24.784Z,99.90
2018-08-13T19:17:53.511Z,99.90
2018-08-13T19:20:22.008Z,99.90
2018-08-13T19:22:50.346Z,99.90
2018-08-13T19:25:21.357Z,99.90
2018-08-13T19:27:49.704Z,99.90
2018-08-13T19:30:19.099Z,99.90
2018-08-13T19:32:48.376Z,99.90
2018-08-13T19:35:16.811Z,99.90
2018-08-13T19:37:45.944Z,99.90
2018-08-13T19:40:16.029Z,99.90
2018-08-13T19:42:45.326Z,99.90
2018-08-13T19:45:14.868Z,99.90
2018-08-13T19:47:43.384Z,99.90
2018-08-13T19:50:12.032Z,99.90
2018-08-13T19:52:41.855Z,99.90
2018-08-13T19:55:10.579Z,99.90
2018-08-13T19:57:39.261Z,99.90
2018-08-13T20:00:11.098Z,99.90
2018-08-13T20:02:39.420Z,99.90
2018-08-13T20:05:08.636Z,99.90
2018-08-13T20:07:36.966Z,99.90
2018-08-13T20:10:07.711Z,99.90
2018-08-13T20:12:36.130Z,99.90
2018-08-13T20:15:04.477Z,99.90
2018-08-13T20:17:32.803Z,99.90
2018-08-13T20:20:01.129Z,99.90
2018-08-13T20:22:29.518Z,99.90
2018-08-13T20:24:57.848Z,99.90
2018-08-13T20:27:26.167Z,99.90
2018-08-13T20:29:54.501Z,99.90
2018-08-13T20:32:22.800Z,99.90
2018-08-13T20:34:51.116Z,99.90
2018-08-13T20:37:19.416Z,99.90
2018-08-13T20:39:47.760Z,99.90
2018-08-13T20:42:16.063Z,99.90
2018-08-13T20:44:44.391Z,99.90
2018-08-13T20:47:12.688Z,99.90
2018-08-13T20:49:41.024Z,99.90
2018-08-13T20:52:09.349Z,99.90
2018-08-13T20:54:37.759Z,99.90
2018-08-13T20:57:06.113Z,99.90
2018-08-13T20:59:34.420Z,99.90
2018-08-13T21:02:02.716Z,99.90
2018-08-13T21:04:31.028Z,99.90
2018-08-13T21:06:59.335Z,99.90
2018-08-13T21:09:27.656Z,99.90
2018-08-13T21:11:56.128Z,99.90
2018-08-13T21:14:24.439Z,99.90
2018-08-13T21:16:52.759Z,99.90
2018-08-13T21:19:21.049Z,99.90
2018-08-13T21:21:49.368Z,99.90
2018-08-13T21:24:17.666Z,99.90
2018-08-13T21:26:46.001Z,99.90
2018-08-13T21:29:14.296Z,99.90
2018-08-13T21:31:42.702Z,99.90
2018-08-13T21:34:11.015Z,99.90
2018-08-13T21:36:39.342Z,99.90
2018-08-13T21:39:08.987Z,99.90
2018-08-13T21:41:37.419Z,99.90
2018-08-13T21:44:05.875Z,99.90
2018-08-13T21:46:34.192Z,99.90
2018-08-13T21:49:02.488Z,99.90
2018-08-13T21:51:30.805Z,99.90
2018-08-13T21:53:59.136Z,99.90
2018-08-13T21:56:27.476Z,99.90
2018-08-13T21:58:55.774Z,99.90
2018-08-13T22:01:29.640Z,99.90
2018-08-13T22:03:57.956Z,99.90
2018-08-13T22:06:26.285Z,99.90
2018-08-13T22:08:54.600Z,99.90
2018-08-13T22:11:22.918Z,99.90
2018-08-13T22:13:51.216Z,99.90
2018-08-13T22:16:19.604Z,99.90
2018-08-13T22:18:47.903Z,99.90
2018-08-13T22:21:16.249Z,99.90
2018-08-13T22:23:55.855Z,99.90
2018-08-13T22:26:24.172Z,99.90
2018-08-13T22:28:52.465Z,99.90
2018-08-13T22:31:20.796Z,99.90
2018-08-13T22:33:49.088Z,99.90
2018-08-13T22:36:17.481Z,99.90
2018-08-13T22:38:45.748Z,99.90
2018-08-13T22:41:14.060Z,99.90
2018-08-13T22:43:42.360Z,99.90
2018-08-13T22:46:10.693Z,99.90
2018-08-13T22:48:38.992Z,99.90
2018-08-13T22:51:07.324Z,99.90
2018-08-13T22:53:35.624Z,99.90
2018-08-13T22:56:03.964Z,99.90
2018-08-13T22:58:32.284Z,99.90
2018-08-13T23:01:00.611Z,99.90
2018-08-13T23:03:28.903Z,99.90
2018-08-13T23:05:57.293Z,99.90
2018-08-13T23:08:25.590Z,99.90
2018-08-13T23:10:53.937Z,99.90
2018-08-13T23:13:22.228Z,99.90
2018-08-13T23:15:50.564Z,99.90
2018-08-13T23:18:18.852Z,99.90
2018-08-13T23:20:47.168Z,99.90
2018-08-13T23:23:15.481Z,99.90
2018-08-13T23:25:43.799Z,99.90
2018-08-13T23:28:12.136Z,99.90
2018-08-13T23:30:40.480Z,99.90
2018-08-13T23:33:08.846Z,99.90
2018-08-13T23:35:37.172Z,99.90
2018-08-13T23:38:05.648Z,99.90
2018-08-13T23:40:34.056Z,99.90
2018-08-13T23:43:02.380Z,99.90
2018-08-13T23:45:31.971Z,99.90
2018-08-13T23:48:00.400Z,99.90
2018-08-13T23:50:28.879Z,99.90
2018-08-13T23:53:01.001Z,99.90
2018-08-13T23:55:33.831Z,99.90
2018-08-13T23:58:02.660Z,99.90
